Beverly, MA

5:40 AM EDT on September 21, 2014 (GMT -0400)
Beverly Cove | Change Station
CLOSE
Current Station
Personal Weather Station
Location: Beverly, MA
Elevation: 51 ft
Nearby Weather Stations

Elev 51 ft 42.56 °N, 70.85 °W | Updated 12 seconds ago

Overcast
Overcast
61.5 °F
Feels Like 61.5 °F
N
0.0
Wind Variable Wind from North
Gusts 0.0 mph

Today
High -- | Low -- °F
--% Chance of Precip.
Yesterday
High -- | Low -- °F
Precip. -- in
6:29 AM 6:42 PM
Waning Crescent, 7% visible
Pressure 29.97 in
Visibility 10.0 miles
Clouds Mostly Cloudy 4100 ft
Overcast 5000 ft
Dew Point 60 °F
Humidity 94%
Rainfall 0.00 in
Snow Depth Not available.
UV 0 out of 12
Pollen 3.50 out of 12
Ozone Good
PM2.5 Good
Flu Activity Not available.
METAR KBVY 210853Z AUTO 00000KT 10SM BKN041 OVC050 17/15 A2998 RMK AO2 SLP148 60000 T01720150 56023 $

More Conditions Fewer Conditions

Pressure 29.97 in
Visibility 10.0 miles
Clouds Mostly Cloudy 4100 ft
Overcast 5000 ft
Dew Point 60 °F
Humidity 94%
Rainfall 0.00 in
Snow Depth Not available.
UV 0 out of 12
Pollen 3.50 out of 12
Ozone Good
PM2.5 Good
Flu Activity Not available.
METAR KBVY 210853Z AUTO 00000KT 10SM BKN041 OVC050 17/15 A2998 RMK AO2 SLP148 60000 T01720150 56023 $

More Conditions Fewer Conditions

10-Day Weather Forecast

Almanac

Astronomy

Sep. 21, 2014 Rise Set
Actual Time 6:29 AM EDT 6:42 PM EDT
Civil Twilight 6:01 AM EDT 7:10 PM EDT
Nautical Twilight 5:28 AM EDT 7:43 PM EDT
Astronomical Twilight 4:54 AM EDT 8:17 PM EDT
Moon 3:57 AM EDT 5:18 PM EDT
Length of Visible Light 13h 09m
Length of Day
12h 12m
Tomorrow will be 2m 52s shorter.
Waning Crescent, 7% of the Moon is Illuminated
Today
Waning Crescent
Sep 24
New
Oct 1
First Quarter
Oct 8
Full
Oct 15
Last Quarter

Today's Extremes

State Highs State Lows

Community

WunderPhotos

Upload Photos

1,755,106 photos uploaded!

Nearby

Air Quality

  Air Quality AQ Index Pollutant
Yesterday Good
OZONE
Yesterday Good
PM2.5
Current Good
PM2.5
Current Good
OZONE
Sunday Good
PM2.5
Sunday Good
OZONE

Snow Depth

Station Depth Elevation
No new snow has been reported.

Earthquake Activity

City Distance Mag. Time & Date
No recent earthquake activity has been reported nearby.
Minimum magnitude displayed is 2.5.

Coastal Water Temperatures

Place Temperature
Boston, MA 62.1 °F
Fall River, MA 69.1 °F

Nearby Weather Stations